createdAt,value
2022-11-13T00:01:44.294Z,10.85
2022-11-13T00:04:30.354Z,10.86
2022-11-13T00:07:16.699Z,10.90
2022-11-13T00:10:02.604Z,10.88
2022-11-13T00:12:48.966Z,10.97
2022-11-13T00:15:35.227Z,10.95
2022-11-13T00:18:21.016Z,10.93
2022-11-13T00:21:14.880Z,10.89
2022-11-13T00:24:01.594Z,10.78
2022-11-13T00:26:47.979Z,10.68
2022-11-13T00:29:34.278Z,10.55
2022-11-13T00:32:20.915Z,10.52
2022-11-13T00:35:07.638Z,10.43
2022-11-13T00:37:54.735Z,10.38
2022-11-13T00:40:40.473Z,10.41
2022-11-13T00:43:27.860Z,10.40
2022-11-13T00:46:13.648Z,10.35
2022-11-13T00:48:59.821Z,10.41
2022-11-13T00:51:46.045Z,10.45
2022-11-13T00:54:31.815Z,10.48
2022-11-13T00:57:18.111Z,10.47
2022-11-13T01:00:05.027Z,10.49
2022-11-13T01:02:51.436Z,10.48
2022-11-13T01:05:39.150Z,10.58
2022-11-13T01:08:25.393Z,10.58
2022-11-13T01:11:17.555Z,10.57
2022-11-13T01:14:03.429Z,10.52
2022-11-13T01:16:49.436Z,10.51
2022-11-13T01:19:35.404Z,10.50
2022-11-13T01:22:23.727Z,10.46
2022-11-13T01:25:09.674Z,10.51
2022-11-13T01:27:55.950Z,10.51
2022-11-13T01:30:42.033Z,10.47
2022-11-13T01:33:28.056Z,10.42
2022-11-13T01:36:19.490Z,10.40
2022-11-13T01:39:05.845Z,10.35
2022-11-13T01:41:51.807Z,10.26
2022-11-13T01:44:52.878Z,10.29
2022-11-13T01:47:38.749Z,10.22
2022-11-13T01:50:25.322Z,10.21
2022-11-13T01:53:11.931Z,10.15
2022-11-13T01:55:58.307Z,10.06
2022-11-13T01:58:51.607Z,9.99
2022-11-13T02:01:37.779Z,9.95
2022-11-13T02:04:25.253Z,10.00
2022-11-13T02:07:15.210Z,9.99
2022-11-13T02:10:01.365Z,9.99
2022-11-13T02:12:50.968Z,9.99
2022-11-13T02:15:37.729Z,9.99
2022-11-13T02:18:26.498Z,10.01
2022-11-13T02:21:12.522Z,9.99
2022-11-13T02:24:45.364Z,10.04
2022-11-13T02:27:40.802Z,10.03
2022-11-13T02:30:33.082Z,10.05
2022-11-13T02:33:23.593Z,10.05
2022-11-13T02:36:12.122Z,10.00
2022-11-13T02:39:00.957Z,10.05
2022-11-13T02:41:46.745Z,9.97
2022-11-13T02:44:32.672Z,9.79
2022-11-13T02:47:18.659Z,9.73
2022-11-13T02:50:06.475Z,9.75
2022-11-13T02:52:52.799Z,9.72
2022-11-13T02:55:38.959Z,9.80
2022-11-13T02:58:25.346Z,9.79
2022-11-13T03:01:11.469Z,9.79
2022-11-13T03:03:58.473Z,9.79
2022-11-13T03:06:44.791Z,9.79
2022-11-13T03:09:31.016Z,9.71
2022-11-13T03:12:17.253Z,9.68
2022-11-13T03:15:03.860Z,9.67
2022-11-13T03:17:49.769Z,9.70
2022-11-13T03:20:41.644Z,9.72
2022-11-13T03:23:28.423Z,9.72
2022-11-13T03:26:17.700Z,9.68
2022-11-13T03:29:04.125Z,9.67
2022-11-13T03:31:50.028Z,9.71
2022-11-13T03:34:36.025Z,9.73
2022-11-13T03:37:22.311Z,9.69
2022-11-13T03:40:08.796Z,9.70
2022-11-13T03:42:54.813Z,9.77
2022-11-13T03:45:40.972Z,9.76
2022-11-13T03:48:29.659Z,9.72
2022-11-13T03:51:15.845Z,9.75
2022-11-13T03:54:01.800Z,9.78
2022-11-13T03:56:47.803Z,9.72
2022-11-13T03:59:34.066Z,9.67
2022-11-13T04:02:19.985Z,9.57
2022-11-13T04:05:08.056Z,9.54
2022-11-13T04:07:54.193Z,9.40
2022-11-13T04:10:40.260Z,9.20
2022-11-13T04:13:26.458Z,9.06
2022-11-13T04:16:12.461Z,8.92
2022-11-13T04:18:58.535Z,8.76
2022-11-13T04:21:44.556Z,8.70
2022-11-13T04:24:30.636Z,8.71
2022-11-13T04:27:16.778Z,8.72
2022-11-13T04:30:04.728Z,8.71
2022-11-13T04:32:51.016Z,8.78
2022-11-13T04:35:37.145Z,8.87
2022-11-13T04:38:23.364Z,8.99
2022-11-13T04:41:30.996Z,8.97
2022-11-13T04:44:16.798Z,8.88
2022-11-13T04:47:03.120Z,8.82
2022-11-13T04:49:48.866Z,8.76
2022-11-13T04:52:34.990Z,8.69
2022-11-13T04:55:20.898Z,8.70
2022-11-13T04:58:07.069Z,8.68
2022-11-13T05:00:52.991Z,8.71
2022-11-13T05:03:39.247Z,8.71
2022-11-13T05:06:25.136Z,8.70
2022-11-13T05:09:11.615Z,8.73
2022-11-13T05:11:57.847Z,8.84
2022-11-13T05:14:43.717Z,8.90
2022-11-13T05:17:30.631Z,8.92
2022-11-13T05:20:17.075Z,9.01
2022-11-13T05:23:03.101Z,8.96
2022-11-13T05:25:49.692Z,9.02
2022-11-13T05:28:37.230Z,9.06
2022-11-13T05:31:23.223Z,9.14
2022-11-13T05:34:09.672Z,9.18
2022-11-13T05:36:55.755Z,9.16
2022-11-13T05:39:41.637Z,9.09
2022-11-13T05:42:27.583Z,9.07
2022-11-13T05:45:13.524Z,9.12
2022-11-13T05:47:59.431Z,9.27
2022-11-13T05:50:45.781Z,9.29
2022-11-13T05:53:34.081Z,9.21
2022-11-13T05:56:23.626Z,9.28
2022-11-13T05:59:09.860Z,9.26
2022-11-13T06:01:55.940Z,9.36
2022-11-13T06:04:41.966Z,9.38
2022-11-13T06:07:28.265Z,9.42
2022-11-13T06:10:14.322Z,9.45
2022-11-13T06:13:00.233Z,9.37
2022-11-13T06:15:46.603Z,9.34
2022-11-13T06:18:33.931Z,9.38
2022-11-13T06:21:22.387Z,9.26
2022-11-13T06:24:11.087Z,9.23
2022-11-13T06:26:56.885Z,9.07
2022-11-13T06:29:43.227Z,9.02
2022-11-13T06:32:30.923Z,9.53
2022-11-13T06:35:16.968Z,9.77
2022-11-13T06:38:02.925Z,9.87
2022-11-13T06:40:49.176Z,10.06
2022-11-13T06:43:35.474Z,10.28
2022-11-13T06:46:23.961Z,10.42
2022-11-13T06:49:09.978Z,10.62
2022-11-13T06:51:56.215Z,10.52
2022-11-13T06:54:42.381Z,10.61
2022-11-13T06:57:30.697Z,10.46
2022-11-13T07:00:17.209Z,10.37
2022-11-13T07:03:03.382Z,10.93
2022-11-13T07:05:49.869Z,11.33
2022-11-13T07:08:37.066Z,11.23
2022-11-13T07:11:23.882Z,11.26
2022-11-13T07:14:12.933Z,11.04
2022-11-13T07:17:09.239Z,10.95
2022-11-13T07:19:58.548Z,11.08
2022-11-13T07:22:55.019Z,11.01
2022-11-13T07:25:41.387Z,10.86
2022-11-13T07:28:27.800Z,10.68
2022-11-13T07:31:15.000Z,10.56
2022-11-13T07:34:01.281Z,10.44
2022-11-13T07:36:47.454Z,10.42
2022-11-13T07:39:33.515Z,10.49
2022-11-13T07:42:19.770Z,10.43
2022-11-13T07:45:07.319Z,10.37
2022-11-13T07:47:57.886Z,10.49
2022-11-13T07:50:43.726Z,10.67
2022-11-13T07:53:30.303Z,11.06
2022-11-13T07:56:21.776Z,11.28
2022-11-13T07:59:11.549Z,11.58
2022-11-13T08:01:57.565Z,11.51
2022-11-13T08:04:43.771Z,11.28
2022-11-13T08:07:31.097Z,11.22
2022-11-13T08:10:18.413Z,11.17
2022-11-13T08:13:07.795Z,11.28
2022-11-13T08:15:53.908Z,12.21
2022-11-13T08:18:40.248Z,13.08
2022-11-13T08:21:26.259Z,13.39
2022-11-13T08:24:12.400Z,13.77
2022-11-13T08:26:58.183Z,14.36
2022-11-13T08:29:44.185Z,15.24
2022-11-13T08:32:31.239Z,16.22
2022-11-13T08:35:19.765Z,16.95
2022-11-13T08:38:08.627Z,17.71
2022-11-13T08:41:08.390Z,17.77
2022-11-13T08:43:55.708Z,16.78
2022-11-13T08:46:41.842Z,16.57
2022-11-13T08:49:28.283Z,16.74
2022-11-13T08:52:15.288Z,17.55
2022-11-13T08:55:01.732Z,17.82
2022-11-13T08:57:47.695Z,17.11
2022-11-13T09:00:34.201Z,16.55
2022-11-13T09:03:20.596Z,16.28
2022-11-13T09:06:08.235Z,15.74
2022-11-13T09:08:54.504Z,15.14
2022-11-13T09:11:43.141Z,14.91
2022-11-13T09:14:29.612Z,15.52
2022-11-13T09:17:15.411Z,16.27
2022-11-13T09:20:04.188Z,16.98
2022-11-13T09:23:07.519Z,18.26
2022-11-13T09:25:53.785Z,18.73
2022-11-13T09:28:40.011Z,19.55
2022-11-13T09:31:26.271Z,20.46
2022-11-13T09:34:12.591Z,21.34
2022-11-13T09:36:58.591Z,22.20
2022-11-13T09:39:44.490Z,22.83
2022-11-13T09:42:33.086Z,22.17
2022-11-13T09:45:19.355Z,21.06
2022-11-13T09:48:13.555Z,20.49
2022-11-13T09:51:06.589Z,19.14
2022-11-13T09:53:52.799Z,17.63
2022-11-13T09:57:01.882Z,16.42
2022-11-13T10:00:02.362Z,14.89
2022-11-13T10:03:59.258Z,14.11
2022-11-13T10:07:00.318Z,13.30
2022-11-13T10:10:05.782Z,13.06
2022-11-13T10:12:54.652Z,13.06
2022-11-13T10:15:44.526Z,13.12
2022-11-13T10:18:36.151Z,13.51
2022-11-13T10:21:44.130Z,13.41
2022-11-13T10:24:40.864Z,12.53
2022-11-13T10:27:26.773Z,11.86
2022-11-13T10:30:16.676Z,11.43
2022-11-13T10:33:06.774Z,11.21
2022-11-13T10:36:04.254Z,11.52
2022-11-13T10:39:02.468Z,12.11
2022-11-13T10:41:54.291Z,12.82
2022-11-13T10:44:41.221Z,12.51
2022-11-13T10:48:01.927Z,12.15
2022-11-13T10:50:37.762Z,11.77
2022-11-13T10:53:26.580Z,11.63
2022-11-13T10:56:35.413Z,11.45
2022-11-13T10:59:21.459Z,11.06
2022-11-13T11:02:21.453Z,11.05
2022-11-13T11:05:18.563Z,11.01
2022-11-13T11:08:08.693Z,11.02
2022-11-13T11:11:27.010Z,10.88
2022-11-13T11:14:26.460Z,10.25
2022-11-13T11:17:16.126Z,9.75
2022-11-13T11:20:37.128Z,9.42
2022-11-13T11:23:45.278Z,9.20
2022-11-13T11:27:01.406Z,9.23
2022-11-13T11:30:20.996Z,9.21
2022-11-13T11:33:20.312Z,9.18
2022-11-13T11:36:12.031Z,9.38
2022-11-13T11:39:39.852Z,9.60
2022-11-13T11:42:47.797Z,9.44
2022-11-13T11:45:44.739Z,9.38
2022-11-13T11:48:32.330Z,9.22
2022-11-13T11:51:34.937Z,9.21
2022-11-13T11:54:34.470Z,9.06
2022-11-13T11:57:23.305Z,8.99
2022-11-13T12:00:13.605Z,8.75
2022-11-13T12:03:02.508Z,8.70
2022-11-13T12:06:13.040Z,8.60
2022-11-13T12:09:04.870Z,8.47
2022-11-13T12:11:56.495Z,8.48
2022-11-13T12:15:14.480Z,8.46
2022-11-13T12:18:26.912Z,8.35
2022-11-13T12:21:22.084Z,8.21
2022-11-13T12:24:58.070Z,8.36
2022-11-13T12:27:53.724Z,8.21
2022-11-13T12:31:08.775Z,8.38
2022-11-13T12:34:17.454Z,8.43
2022-11-13T12:37:11.526Z,8.46
2022-11-13T12:40:04.720Z,8.46
2022-11-13T12:43:06.330Z,8.51
2022-11-13T12:45:54.725Z,8.51
2022-11-13T12:48:48.270Z,8.56
2022-11-13T12:51:40.427Z,8.52
2022-11-13T12:54:37.045Z,8.44
2022-11-13T12:57:30.097Z,8.26
2022-11-13T13:00:28.966Z,8.25
2022-11-13T13:03:37.323Z,8.15
2022-11-13T13:06:23.396Z,8.09
2022-11-13T13:09:25.624Z,8.05
2022-11-13T13:12:23.989Z,8.03
2022-11-13T13:15:31.812Z,8.09
2022-11-13T13:18:17.900Z,8.04
2022-11-13T13:21:06.666Z,8.09
2022-11-13T13:23:53.558Z,8.07
2022-11-13T13:26:47.580Z,8.06
2022-11-13T13:29:33.984Z,8.03
2022-11-13T13:32:32.796Z,8.04
2022-11-13T13:35:39.407Z,8.07
2022-11-13T13:38:36.524Z,8.01
2022-11-13T13:41:44.290Z,8.09
2022-11-13T13:44:41.732Z,7.96
2022-11-13T13:47:32.191Z,7.96
2022-11-13T13:50:24.656Z,8.03
2022-11-13T13:53:16.604Z,8.04
2022-11-13T13:56:04.398Z,8.06
2022-11-13T13:58:52.092Z,8.06
2022-11-13T14:01:38.034Z,7.97
2022-11-13T14:04:25.496Z,7.93
2022-11-13T14:07:31.594Z,7.96
2022-11-13T14:10:20.558Z,7.78
2022-11-13T14:13:06.751Z,7.67
2022-11-13T14:16:07.402Z,7.61
2022-11-13T14:19:03.511Z,7.58
2022-11-13T14:21:53.315Z,7.56
2022-11-13T14:25:00.789Z,7.71
2022-11-13T14:27:47.084Z,7.70
2022-11-13T14:30:33.180Z,7.68
2022-11-13T14:33:24.857Z,7.67
2022-11-13T14:36:12.145Z,7.64
2022-11-13T14:38:58.940Z,7.61
2022-11-13T14:41:55.991Z,7.67
2022-11-13T14:44:42.289Z,7.54
2022-11-13T14:47:37.485Z,7.61
2022-11-13T14:50:30.957Z,7.66
2022-11-13T14:53:33.857Z,7.67
2022-11-13T14:56:19.846Z,7.69
2022-11-13T14:59:26.978Z,7.75
2022-11-13T15:02:13.304Z,7.69
2022-11-13T15:04:59.339Z,7.65
2022-11-13T15:07:46.407Z,7.65
2022-11-13T15:10:32.495Z,7.64
2022-11-13T15:13:18.975Z,7.67
2022-11-13T15:16:06.354Z,7.70
2022-11-13T15:19:05.148Z,7.70
2022-11-13T15:22:20.246Z,7.71
2022-11-13T15:24:57.263Z,7.73
2022-11-13T15:27:43.724Z,7.71
2022-11-13T15:30:29.756Z,7.70
2022-11-13T15:33:16.563Z,7.76
2022-11-13T15:36:02.735Z,7.72
2022-11-13T15:38:48.979Z,7.68
2022-11-13T15:41:36.363Z,7.63
2022-11-13T15:44:22.349Z,7.59
2022-11-13T15:47:30.148Z,7.64
2022-11-13T15:50:16.867Z,7.55
2022-11-13T15:53:05.425Z,7.46
2022-11-13T15:55:52.009Z,7.58
2022-11-13T15:58:37.909Z,7.63
2022-11-13T16:01:24.328Z,7.60
2022-11-13T16:04:13.096Z,7.53
2022-11-13T16:06:58.997Z,7.54
2022-11-13T16:09:45.709Z,7.52
2022-11-13T16:12:31.788Z,7.37
2022-11-13T16:15:18.175Z,7.31
2022-11-13T16:18:04.741Z,7.29
2022-11-13T16:20:50.520Z,7.32
2022-11-13T16:23:36.382Z,7.33
2022-11-13T16:26:25.100Z,7.34
2022-11-13T16:29:19.757Z,7.45
2022-11-13T16:32:06.467Z,7.47
2022-11-13T16:34:52.308Z,7.48
2022-11-13T16:37:39.284Z,7.41
2022-11-13T16:40:26.726Z,7.45
2022-11-13T16:43:13.256Z,7.43
2022-11-13T16:46:00.459Z,7.35
2022-11-13T16:48:47.999Z,7.35
2022-11-13T16:51:33.901Z,7.31
2022-11-13T16:54:20.202Z,7.37
2022-11-13T16:57:06.464Z,7.28
2022-11-13T16:59:52.452Z,7.26
2022-11-13T17:02:39.259Z,7.28
2022-11-13T17:05:25.554Z,7.17
2022-11-13T17:08:13.020Z,7.16
2022-11-13T17:10:59.844Z,7.18
2022-11-13T17:13:51.052Z,7.23
2022-11-13T17:16:37.960Z,7.23
2022-11-13T17:19:23.992Z,7.23
2022-11-13T17:22:14.391Z,7.24
2022-11-13T17:25:00.727Z,7.24
2022-11-13T17:27:47.643Z,7.26
2022-11-13T17:30:34.179Z,7.23
2022-11-13T17:33:20.787Z,7.26
2022-11-13T17:36:09.120Z,7.20
2022-11-13T17:38:55.499Z,7.06
2022-11-13T17:41:41.786Z,7.05
2022-11-13T17:44:28.217Z,7.05
2022-11-13T17:47:14.295Z,7.03
2022-11-13T17:50:06.765Z,7.09
2022-11-13T17:52:53.436Z,7.11
2022-11-13T17:55:39.809Z,7.08
2022-11-13T17:58:26.644Z,7.03
2022-11-13T18:01:19.411Z,7.07
2022-11-13T18:04:05.578Z,6.97
2022-11-13T18:06:52.385Z,7.05
2022-11-13T18:09:38.670Z,6.96
2022-11-13T18:12:24.993Z,6.96
2022-11-13T18:15:11.406Z,6.89
2022-11-13T18:17:57.983Z,6.85
2022-11-13T18:20:44.359Z,6.89
2022-11-13T18:23:31.189Z,6.91
2022-11-13T18:26:19.348Z,6.86
2022-11-13T18:29:05.517Z,7.04
2022-11-13T18:31:51.547Z,6.82
2022-11-13T18:34:37.927Z,6.77
2022-11-13T18:37:24.312Z,6.66
2022-11-13T18:40:11.138Z,6.67
2022-11-13T18:42:57.241Z,6.61
2022-11-13T18:45:43.647Z,6.62
2022-11-13T18:48:30.928Z,6.60
2022-11-13T18:51:20.027Z,6.60
2022-11-13T18:54:09.822Z,6.57
2022-11-13T18:56:56.494Z,6.39
2022-11-13T18:59:42.724Z,6.35
2022-11-13T19:02:31.710Z,6.31
2022-11-13T19:05:17.721Z,6.33
2022-11-13T19:08:03.869Z,6.34
2022-11-13T19:10:50.240Z,6.25
2022-11-13T19:13:37.371Z,6.23
2022-11-13T19:16:26.035Z,6.25
2022-11-13T19:19:22.614Z,6.34
2022-11-13T19:22:09.144Z,6.30
2022-11-13T19:24:55.348Z,6.33
2022-11-13T19:27:41.378Z,6.36
2022-11-13T19:30:27.918Z,6.33
2022-11-13T19:33:14.120Z,6.30
2022-11-13T19:36:09.849Z,6.38
2022-11-13T19:38:56.472Z,6.31
2022-11-13T19:41:42.426Z,6.35
2022-11-13T19:44:28.608Z,6.36
2022-11-13T19:47:14.881Z,6.32
2022-11-13T19:50:00.891Z,6.23
2022-11-13T19:52:46.995Z,6.17
2022-11-13T19:55:34.869Z,6.13
2022-11-13T19:58:20.862Z,6.08
2022-11-13T20:01:14.234Z,6.12
2022-11-13T20:04:02.458Z,6.14
2022-11-13T20:06:48.814Z,6.18
2022-11-13T20:09:34.890Z,6.17
2022-11-13T20:12:21.072Z,6.17
2022-11-13T20:15:07.344Z,6.05
2022-11-13T20:17:53.455Z,6.04
2022-11-13T20:20:43.610Z,6.15
2022-11-13T20:23:29.540Z,6.19
2022-11-13T20:26:19.182Z,6.21
2022-11-13T20:29:05.247Z,6.20
2022-11-13T20:31:52.162Z,6.21
2022-11-13T20:34:38.124Z,6.27
2022-11-13T20:37:24.437Z,6.31
2022-11-13T20:40:11.306Z,6.31
2022-11-13T20:42:57.724Z,6.38
2022-11-13T20:45:44.234Z,6.31
2022-11-13T20:48:30.653Z,6.31
2022-11-13T20:51:20.538Z,6.22
2022-11-13T20:54:06.762Z,6.18
2022-11-13T20:56:52.481Z,6.06
2022-11-13T20:59:38.190Z,5.92
2022-11-13T21:02:24.000Z,5.85
2022-11-13T21:05:09.711Z,5.84
2022-11-13T21:07:56.098Z,5.90
2022-11-13T21:10:42.162Z,5.86
2022-11-13T21:13:28.559Z,5.82
2022-11-13T21:16:15.767Z,5.80
2022-11-13T21:19:01.852Z,5.77
2022-11-13T21:21:48.090Z,5.72
2022-11-13T21:24:34.431Z,5.61
2022-11-13T21:27:20.648Z,5.59
2022-11-13T21:30:07.054Z,5.53
2022-11-13T21:32:53.271Z,5.55
2022-11-13T21:35:38.938Z,5.49
2022-11-13T21:38:25.136Z,5.47
2022-11-13T21:41:22.701Z,5.45
2022-11-13T21:44:10.804Z,5.40
2022-11-13T21:46:56.875Z,5.37
2022-11-13T21:49:43.062Z,5.24
2022-11-13T21:52:31.002Z,5.33
2022-11-13T21:55:17.032Z,5.08
2022-11-13T21:58:03.231Z,4.98
2022-11-13T22:00:49.246Z,4.98
2022-11-13T22:03:35.255Z,4.97
2022-11-13T22:06:25.903Z,5.01
2022-11-13T22:09:23.391Z,5.07
2022-11-13T22:12:10.397Z,5.00
2022-11-13T22:14:56.297Z,5.00
2022-11-13T22:17:42.649Z,5.11
2022-11-13T22:20:28.993Z,5.09
2022-11-13T22:23:16.381Z,5.09
2022-11-13T22:26:16.512Z,5.02
2022-11-13T22:29:02.447Z,4.96
2022-11-13T22:31:48.801Z,4.95
2022-11-13T22:34:35.154Z,4.94
2022-11-13T22:37:21.414Z,4.86
2022-11-13T22:40:08.464Z,4.77
2022-11-13T22:42:55.592Z,4.73
2022-11-13T22:45:41.854Z,4.77
2022-11-13T22:48:28.251Z,4.82
2022-11-13T22:51:17.574Z,4.78
2022-11-13T22:54:09.671Z,4.71
2022-11-13T22:56:56.791Z,4.57
2022-11-13T22:59:42.671Z,4.42
2022-11-13T23:02:28.581Z,4.38
2022-11-13T23:05:14.930Z,4.29
2022-11-13T23:08:01.073Z,4.26
2022-11-13T23:10:54.079Z,4.30
2022-11-13T23:13:44.794Z,4.29
2022-11-13T23:16:31.972Z,4.34
2022-11-13T23:19:18.207Z,4.37
2022-11-13T23:22:04.185Z,4.54
2022-11-13T23:24:49.984Z,4.59
2022-11-13T23:27:36.275Z,4.65
2022-11-13T23:30:22.194Z,4.60
2022-11-13T23:33:08.954Z,4.53
2022-11-13T23:35:55.116Z,4.58
2022-11-13T23:38:42.134Z,4.51
2022-11-13T23:41:28.017Z,4.42
2022-11-13T23:44:13.550Z,4.41
2022-11-13T23:46:59.607Z,4.51
2022-11-13T23:49:45.768Z,4.60
2022-11-13T23:52:31.575Z,4.66
2022-11-13T23:55:17.884Z,4.64
2022-11-13T23:58:05.777Z,4.64
